首页
METAR-TAF:

METAR-TAF

机场 :

鲍里斯波尔国际机场

鮑里斯皮爾, 乌克兰

纬度: 50-20N, 经度: 030-58E, 海拔: 121米

当前天气观测

该预报发布于25分钟前的02:00 UTC
风速8节,风向西,在西转西南西北之间变化
温度 1°C
湿度 80%
气压 1032 hPa
能见度10公里或以上
阴天层高于1800英尺

METAR: UKBB 210200Z 27004MPS 240V310 9999 OVC018 01/M02 Q1032 R36R/290050 R36L/CLRD// NOSIG

时间: 04:25 (02:25 UTC)

预报

该预报发布于3小时和25分钟前的23:00 UTC
预报有效从21日的 00点(UTC)到 21日的 24点(UTC)
风速12节,风向西转西北,有时为21节阵风
能见度10公里或以上
阴天层高于1000英尺
短暂存在
从 21日的 00点(UTC)到 21日的 08点(UTC)
能見度: 2000
阴天层高于400英尺
小雪, 轻雾
成为
从 21日的 04点(UTC)到 21日的 06点(UTC)
风速16节,风向西,有时为27节阵风
短暂存在
从 21日的 12点(UTC)到 21日的 24点(UTC)
风速21节,风向西,有时为33节阵风

TAF: UKBB 202300Z 2100/2124 29006G11MPS 9999 OVC010 TX02/2112Z TNM01/2104Z TEMPO 2100/2108 2000 -SN BR OVC004 BECMG 2104/2106 28008G14MPS TEMPO 2112/2124 27011G17MPS

超过4000个机场的气象观测和天气预报(METAR&TAF报告)。

可查询的气象台以黄色和红色小点在地图上表示。

将鼠标移到小点上方,可查看气象台名称。

然后点击查看天气观测和预报。

如需切换地图:点击带黑十字的绿色按钮放大地图;点击带横线的绿色按钮缩小地图;或者点击绿色箭头查看邻近地区的地图。


METAR-TAF: